Terminal Aerodrome Forecast
Issued by NWS Mobile, AL

Home | Current Version | Previous Version | Text Only | Print | Product List | Glossary On
Versions: 1 2 3 4 5 6 7 8 9 10 11 12 13 14 15 16 17 18 19 20 21
000
FTUS44 KMOB 291734 CCA
TAFMOB
TAF COR
KMOB 291734Z 2918/3018 22007KT P6SM SCT025 OVC030
     FM300000 17004KT P6SM SCT030 OVC250
     FM300700 23006KT P6SM SHRA BKN030
     FM301400 VRB10KT P6SM VCTS BKN030CB OVC050
     FM301700 03009KT P6SM OVC050=

USA.gov is the U.S. government's official web portal to all federal, state and local government web resources and services.